sensor_id;sensor_type;location;lat;lon;timestamp;pressure;altitude;pressure_sealevel;temperature;humidity
40596;BME280;26304;48.794;9.820;2023-07-28T00:01:49;95708.69;;;19.04;78.87
40596;BME280;26304;48.794;9.820;2023-07-28T00:07:33;95716.22;;;19.02;79.24
40596;BME280;26304;48.794;9.820;2023-07-28T00:13:17;95713.09;;;19.18;78.05
40596;BME280;26304;48.794;9.820;2023-07-28T00:18:59;95716.78;;;19.24;77.65
40596;BME280;26304;48.794;9.820;2023-07-28T00:24:43;95713.16;;;19.07;78.43
40596;BME280;26304;48.794;9.820;2023-07-28T00:30:25;95708.72;;;18.97;79.08
40596;BME280;26304;48.794;9.820;2023-07-28T00:36:08;95709.44;;;19.01;79.16
40596;BME280;26304;48.794;9.820;2023-07-28T00:41:52;95703.06;;;19.02;79.09
40596;BME280;26304;48.794;9.820;2023-07-28T00:47:34;95706.81;;;19.01;78.28
40596;BME280;26304;48.794;9.820;2023-07-28T00:53:17;95698.91;;;19.01;78.10
40596;BME280;26304;48.794;9.820;2023-07-28T00:59:01;95688.06;;;18.92;78.47
40596;BME280;26304;48.794;9.820;2023-07-28T01:04:43;95686.28;;;18.74;78.96
40596;BME280;26304;48.794;9.820;2023-07-28T01:10:29;95688.53;;;18.76;78.58
40596;BME280;26304;48.794;9.820;2023-07-28T01:16:14;95692.25;;;18.85;77.39
40596;BME280;26304;48.794;9.820;2023-07-28T01:22:04;95702.75;;;18.93;76.60
40596;BME280;26304;48.794;9.820;2023-07-28T01:27:51;95694.16;;;18.85;76.60
40596;BME280;26304;48.794;9.820;2023-07-28T01:33:34;95698.69;;;18.84;76.43
40596;BME280;26304;48.794;9.820;2023-07-28T01:39:16;95687.72;;;18.82;76.21
40596;BME280;26304;48.794;9.820;2023-07-28T01:45:00;95680.59;;;18.79;75.88
40596;BME280;26304;48.794;9.820;2023-07-28T01:50:42;95679.16;;;18.71;76.23
40596;BME280;26304;48.794;9.820;2023-07-28T01:56:25;95676.56;;;18.67;76.32
40596;BME280;26304;48.794;9.820;2023-07-28T02:02:09;95665.97;;;18.78;75.73
40596;BME280;26304;48.794;9.820;2023-07-28T02:07:51;95664.13;;;18.68;75.87
40596;BME280;26304;48.794;9.820;2023-07-28T02:13:34;95666.72;;;18.75;75.46
40596;BME280;26304;48.794;9.820;2023-07-28T02:19:18;95665.22;;;18.74;75.28
40596;BME280;26304;48.794;9.820;2023-07-28T02:25:00;95671.22;;;18.78;74.85
40596;BME280;26304;48.794;9.820;2023-07-28T02:30:43;95664.09;;;18.75;75.14
40596;BME280;26304;48.794;9.820;2023-07-28T02:36:27;95654.69;;;18.74;75.47
40596;BME280;26304;48.794;9.820;2023-07-28T02:42:09;95653.22;;;18.73;75.55
40596;BME280;26304;48.794;9.820;2023-07-28T02:47:51;95652.06;;;18.74;75.14
40596;BME280;26304;48.794;9.820;2023-07-28T02:53:35;95650.66;;;18.59;76.01
40596;BME280;26304;48.794;9.820;2023-07-28T02:59:18;95670.50;;;18.74;75.36
40596;BME280;26304;48.794;9.820;2023-07-28T03:05:00;95665.69;;;18.65;75.32
40596;BME280;26304;48.794;9.820;2023-07-28T03:10:44;95686.34;;;18.63;75.77
40596;BME280;26304;48.794;9.820;2023-07-28T03:16:26;95694.59;;;18.69;75.46
40596;BME280;26304;48.794;9.820;2023-07-28T03:22:09;95701.00;;;18.68;75.95
40596;BME280;26304;48.794;9.820;2023-07-28T03:27:52;95705.88;;;18.69;75.69
40596;BME280;26304;48.794;9.820;2023-07-28T03:33:35;95719.06;;;18.66;76.22
40596;BME280;26304;48.794;9.820;2023-07-28T03:39:17;95722.47;;;18.63;76.10
40596;BME280;26304;48.794;9.820;2023-07-28T03:45:01;95724.78;;;18.57;76.82
40596;BME280;26304;48.794;9.820;2023-07-28T03:50:44;95733.09;;;18.48;76.99
40596;BME280;26304;48.794;9.820;2023-07-28T03:56:26;95744.38;;;18.45;77.49
40596;BME280;26304;48.794;9.820;2023-07-28T04:02:11;95745.56;;;18.37;77.83
40596;BME280;26304;48.794;9.820;2023-07-28T04:07:53;95745.13;;;18.46;77.12
40596;BME280;26304;48.794;9.820;2023-07-28T04:13:36;95760.63;;;18.29;78.00
40596;BME280;26304;48.794;9.820;2023-07-28T04:19:19;95759.38;;;18.52;78.33
40596;BME280;26304;48.794;9.820;2023-07-28T04:25:02;95763.81;;;18.66;76.67
40596;BME280;26304;48.794;9.820;2023-07-28T04:30:44;95761.53;;;18.68;77.04
40596;BME280;26304;48.794;9.820;2023-07-28T04:36:28;95759.97;;;18.81;77.07
40596;BME280;26304;48.794;9.820;2023-07-28T04:42:11;95758.41;;;18.95;75.74
40596;BME280;26304;48.794;9.820;2023-07-28T04:47:53;95749.34;;;18.99;74.88
40596;BME280;26304;48.794;9.820;2023-07-28T04:53:37;95747.84;;;18.98;74.95
40596;BME280;26304;48.794;9.820;2023-07-28T04:59:19;95753.09;;;19.02;74.05
40596;BME280;26304;48.794;9.820;2023-07-28T05:05:02;95759.94;;;18.88;75.47
40596;BME280;26304;48.794;9.820;2023-07-28T05:10:45;95763.66;;;18.98;74.69
40596;BME280;26304;48.794;9.820;2023-07-28T05:16:28;95753.78;;;19.13;74.21
40596;BME280;26304;48.794;9.820;2023-07-28T05:22:10;95746.88;;;19.27;73.75
40596;BME280;26304;48.794;9.820;2023-07-28T05:27:54;95758.94;;;19.28;73.87
40596;BME280;26304;48.794;9.820;2023-07-28T05:33:38;95756.63;;;19.30;73.38
40596;BME280;26304;48.794;9.820;2023-07-28T05:39:21;95760.50;;;19.18;73.60
40596;BME280;26304;48.794;9.820;2023-07-28T05:45:06;95768.03;;;19.16;73.54
40596;BME280;26304;48.794;9.820;2023-07-28T05:50:48;95766.16;;;19.16;73.42
40596;BME280;26304;48.794;9.820;2023-07-28T05:56:32;95772.50;;;19.22;73.42
40596;BME280;26304;48.794;9.820;2023-07-28T06:02:16;95785.31;;;19.20;73.44
40596;BME280;26304;48.794;9.820;2023-07-28T06:07:59;95787.94;;;19.20;73.27
40596;BME280;26304;48.794;9.820;2023-07-28T06:13:41;95794.34;;;19.23;73.35
40596;BME280;26304;48.794;9.820;2023-07-28T06:19:25;95803.34;;;19.26;72.93
40596;BME280;26304;48.794;9.820;2023-07-28T06:25:07;95810.13;;;19.27;73.25
40596;BME280;26304;48.794;9.820;2023-07-28T06:30:53;95809.38;;;19.22;73.07
40596;BME280;26304;48.794;9.820;2023-07-28T06:36:37;95812.41;;;19.21;73.45
40596;BME280;26304;48.794;9.820;2023-07-28T06:42:19;95815.44;;;19.23;72.90
40596;BME280;26304;48.794;9.820;2023-07-28T06:48:05;95826.66;;;19.27;72.65
40596;BME280;26304;48.794;9.820;2023-07-28T06:53:48;95830.06;;;19.28;72.85
40596;BME280;26304;48.794;9.820;2023-07-28T06:59:31;95840.97;;;19.30;72.51
40596;BME280;26304;48.794;9.820;2023-07-28T07:05:14;95839.47;;;19.29;72.83
40596;BME280;26304;48.794;9.820;2023-07-28T07:10:58;95843.59;;;19.30;72.89
40596;BME280;26304;48.794;9.820;2023-07-28T07:16:41;95853.41;;;19.29;72.70
40596;BME280;26304;48.794;9.820;2023-07-28T07:22:24;95845.13;;;19.31;72.64
40596;BME280;26304;48.794;9.820;2023-07-28T07:28:08;95859.78;;;19.32;72.45
40596;BME280;26304;48.794;9.820;2023-07-28T07:33:50;95876.31;;;19.36;72.61
40596;BME280;26304;48.794;9.820;2023-07-28T07:39:32;95869.50;;;19.38;72.66
40596;BME280;26304;48.794;9.820;2023-07-28T07:45:18;95861.22;;;19.40;72.06
40596;BME280;26304;48.794;9.820;2023-07-28T07:51:01;95880.06;;;19.42;71.95
40596;BME280;26304;48.794;9.820;2023-07-28T07:56:43;95881.56;;;19.39;72.15
40596;BME280;26304;48.794;9.820;2023-07-28T08:02:29;95877.03;;;19.40;72.13
40596;BME280;26304;48.794;9.820;2023-07-28T08:08:12;95881.19;;;19.41;72.28
40596;BME280;26304;48.794;9.820;2023-07-28T08:13:56;95880.03;;;19.46;72.11
40596;BME280;26304;48.794;9.820;2023-07-28T08:19:40;95872.44;;;19.51;71.68
40596;BME280;26304;48.794;9.820;2023-07-28T08:25:22;95880.34;;;19.55;71.58
40596;BME280;26304;48.794;9.820;2023-07-28T08:31:05;95881.81;;;19.56;71.48
40596;BME280;26304;48.794;9.820;2023-07-28T08:36:49;95888.19;;;19.62;71.23
40596;BME280;26304;48.794;9.820;2023-07-28T08:42:36;95908.53;;;19.62;71.39
40596;BME280;26304;48.794;9.820;2023-07-28T08:48:19;95910.03;;;19.63;71.33
40596;BME280;26304;48.794;9.820;2023-07-28T08:54:03;95907.78;;;19.61;71.76
40596;BME280;26304;48.794;9.820;2023-07-28T08:59:45;95917.59;;;19.57;71.76
40596;BME280;26304;48.794;9.820;2023-07-28T09:05:33;95923.25;;;19.55;71.70
40596;BME280;26304;48.794;9.820;2023-07-28T09:11:17;95930.03;;;19.56;71.50
40596;BME280;26304;48.794;9.820;2023-07-28T09:17:06;95925.13;;;19.58;72.03
40596;BME280;26304;48.794;9.820;2023-07-28T09:22:50;95935.66;;;19.58;72.22
40596;BME280;26304;48.794;9.820;2023-07-28T09:28:38;95943.94;;;19.60;71.89
40596;BME280;26304;48.794;9.820;2023-07-28T09:34:24;95942.47;;;19.59;71.90
40596;BME280;26304;48.794;9.820;2023-07-28T09:40:08;95943.19;;;19.60;72.41
40596;BME280;26304;48.794;9.820;2023-07-28T09:45:55;95940.91;;;19.66;71.88
40596;BME280;26304;48.794;9.820;2023-07-28T09:51:37;95943.19;;;19.60;73.26
40596;BME280;26304;48.794;9.820;2023-07-28T09:57:21;95944.78;;;19.50;73.58
40596;BME280;26304;48.794;9.820;2023-07-28T10:03:07;95947.31;;;19.65;72.19
40596;BME280;26304;48.794;9.820;2023-07-28T10:08:50;95945.38;;;19.76;72.48
40596;BME280;26304;48.794;9.820;2023-07-28T10:14:34;95944.19;;;19.84;71.49
40596;BME280;26304;48.794;9.820;2023-07-28T10:20:33;95947.19;;;19.86;71.54
40596;BME280;26304;48.794;9.820;2023-07-28T10:26:31;95946.41;;;19.89;70.82
40596;BME280;26304;48.794;9.820;2023-07-28T10:32:25;95943.25;;;20.05;71.43
40596;BME280;26304;48.794;9.820;2023-07-28T10:38:31;95939.84;;;20.12;71.61
40596;BME280;26304;48.794;9.820;2023-07-28T10:44:15;95940.94;;;20.14;71.17
40596;BME280;26304;48.794;9.820;2023-07-28T10:50:02;95941.63;;;20.22;71.38
40596;BME280;26304;48.794;9.820;2023-07-28T10:55:47;95944.59;;;20.28;71.54
40596;BME280;26304;48.794;9.820;2023-07-28T11:01:32;95941.16;;;20.31;71.09
40596;BME280;26304;48.794;9.820;2023-07-28T11:07:15;95943.81;;;20.27;71.73
40596;BME280;26304;48.794;9.820;2023-07-28T11:13:01;95942.66;;;20.32;71.29
40596;BME280;26304;48.794;9.820;2023-07-28T11:18:43;95937.41;;;20.28;71.62
40596;BME280;26304;48.794;9.820;2023-07-28T11:24:26;95953.25;;;20.28;71.62
40596;BME280;26304;48.794;9.820;2023-07-28T11:30:12;95949.88;;;20.28;71.67
40596;BME280;26304;48.794;9.820;2023-07-28T11:35:54;95957.03;;;20.27;71.79
40596;BME280;26304;48.794;9.820;2023-07-28T11:41:37;95968.75;;;20.26;71.96
40596;BME280;26304;48.794;9.820;2023-07-28T11:47:22;95963.06;;;20.28;71.90
40596;BME280;26304;48.794;9.820;2023-07-28T11:53:05;95964.94;;;20.27;72.09
40596;BME280;26304;48.794;9.820;2023-07-28T11:58:50;95969.09;;;20.28;72.06
40596;BME280;26304;48.794;9.820;2023-07-28T12:04:37;95962.31;;;20.27;72.28
40596;BME280;26304;48.794;9.820;2023-07-28T12:10:20;95967.19;;;20.29;72.42
40596;BME280;26304;48.794;9.820;2023-07-28T12:16:03;95966.06;;;20.30;72.35
40596;BME280;26304;48.794;9.820;2023-07-28T12:21:46;95963.78;;;20.32;72.24
40596;BME280;26304;48.794;9.820;2023-07-28T12:27:29;95961.13;;;20.32;72.13
40596;BME280;26304;48.794;9.820;2023-07-28T12:33:11;95965.28;;;20.33;72.21
40596;BME280;26304;48.794;9.820;2023-07-28T12:38:55;95962.66;;;20.33;72.43
40596;BME280;26304;48.794;9.820;2023-07-28T12:44:38;95958.09;;;20.33;72.23
40596;BME280;26304;48.794;9.820;2023-07-28T12:50:21;95956.97;;;20.35;71.99
40596;BME280;26304;48.794;9.820;2023-07-28T12:56:05;95967.53;;;20.35;71.91
40596;BME280;26304;48.794;9.820;2023-07-28T13:01:47;95966.38;;;20.36;72.14
40596;BME280;26304;48.794;9.820;2023-07-28T13:07:30;95976.94;;;20.36;72.26
40596;BME280;26304;48.794;9.820;2023-07-28T13:13:13;95971.25;;;20.37;72.14
40596;BME280;26304;48.794;9.820;2023-07-28T13:18:56;95973.81;;;20.48;72.10
40596;BME280;26304;48.794;9.820;2023-07-28T13:24:40;95977.81;;;20.63;71.82
40596;BME280;26304;48.794;9.820;2023-07-28T13:30:26;95979.34;;;20.64;72.75
40596;BME280;26304;48.794;9.820;2023-07-28T13:36:08;95982.59;;;20.76;72.74
40596;BME280;26304;48.794;9.820;2023-07-28T13:41:51;95976.81;;;20.88;72.02
40596;BME280;26304;48.794;9.820;2023-07-28T13:47:35;95983.28;;;20.87;72.58
40596;BME280;26304;48.794;9.820;2023-07-28T13:53:17;95973.84;;;20.86;72.40
40596;BME280;26304;48.794;9.820;2023-07-28T13:58:59;95980.47;;;21.01;71.86
40596;BME280;26304;48.794;9.820;2023-07-28T14:04:43;95982.03;;;20.95;71.94
40596;BME280;26304;48.794;9.820;2023-07-28T14:10:26;95990.38;;;20.94;72.15
40596;BME280;26304;48.794;9.820;2023-07-28T14:16:08;95997.41;;;21.04;71.69
40596;BME280;26304;48.794;9.820;2023-07-28T14:21:53;95998.91;;;21.05;71.29
40596;BME280;26304;48.794;9.820;2023-07-28T14:27:35;96003.09;;;21.02;71.49
40596;BME280;26304;48.794;9.820;2023-07-28T14:33:18;96000.44;;;21.06;71.32
40596;BME280;26304;48.794;9.820;2023-07-28T14:39:02;95994.38;;;21.05;72.17
40596;BME280;26304;48.794;9.820;2023-07-28T14:44:44;95988.06;;;20.96;72.57
40596;BME280;26304;48.794;9.820;2023-07-28T14:50:27;95975.66;;;20.93;73.96
40596;BME280;26304;48.794;9.820;2023-07-28T14:56:11;95984.97;;;21.04;73.36
40596;BME280;26304;48.794;9.820;2023-07-28T15:01:53;95966.84;;;21.03;74.30
40596;BME280;26304;48.794;9.820;2023-07-28T15:07:35;95967.16;;;21.09;73.62
40596;BME280;26304;48.794;9.820;2023-07-28T15:13:20;95971.66;;;21.12;73.82
40596;BME280;26304;48.794;9.820;2023-07-28T15:19:02;95975.81;;;21.09;74.14
40596;BME280;26304;48.794;9.820;2023-07-28T15:24:44;95991.28;;;21.11;74.08
40596;BME280;26304;48.794;9.820;2023-07-28T15:30:28;95993.84;;;21.18;73.35
40596;BME280;26304;48.794;9.820;2023-07-28T15:36:11;95998.03;;;21.15;73.17
40596;BME280;26304;48.794;9.820;2023-07-28T15:41:53;96005.50;;;21.24;72.79
40596;BME280;26304;48.794;9.820;2023-07-28T15:47:37;96009.28;;;21.23;73.01
40596;BME280;26304;48.794;9.820;2023-07-28T15:53:19;95999.81;;;21.26;73.00
40596;BME280;26304;48.794;9.820;2023-07-28T15:59:02;95999.03;;;21.25;72.45
40596;BME280;26304;48.794;9.820;2023-07-28T16:04:45;95992.28;;;21.24;71.80
40596;BME280;26304;48.794;9.820;2023-07-28T16:10:28;95989.19;;;21.29;72.30
40596;BME280;26304;48.794;9.820;2023-07-28T16:16:10;95978.94;;;21.35;72.58
40596;BME280;26304;48.794;9.820;2023-07-28T16:21:54;95980.13;;;21.30;73.04
40596;BME280;26304;48.794;9.820;2023-07-28T16:27:39;95987.66;;;21.32;71.78
40596;BME280;26304;48.794;9.820;2023-07-28T16:33:22;95989.53;;;21.31;73.10
40596;BME280;26304;48.794;9.820;2023-07-28T16:39:05;95987.94;;;21.37;71.98
40596;BME280;26304;48.794;9.820;2023-07-28T16:44:48;95986.63;;;21.22;73.68
40596;BME280;26304;48.794;9.820;2023-07-28T16:50:30;95981.69;;;21.24;73.35
40596;BME280;26304;48.794;9.820;2023-07-28T16:56:14;95988.06;;;21.30;73.15
40596;BME280;26304;48.794;9.820;2023-07-28T17:01:57;95980.81;;;21.34;72.90
40596;BME280;26304;48.794;9.820;2023-07-28T17:07:39;95979.31;;;21.33;73.94
40596;BME280;26304;48.794;9.820;2023-07-28T17:13:24;95983.81;;;21.36;72.61
40596;BME280;26304;48.794;9.820;2023-07-28T17:19:08;95980.72;;;21.41;73.01
40596;BME280;26304;48.794;9.820;2023-07-28T17:24:50;95984.34;;;21.55;72.82
40596;BME280;26304;48.794;9.820;2023-07-28T17:30:34;95964.25;;;21.61;73.07
40596;BME280;26304;48.794;9.820;2023-07-28T17:36:17;95977.44;;;21.88;73.14
40596;BME280;26304;48.794;9.820;2023-07-28T17:41:59;95980.91;;;21.85;73.29
40596;BME280;26304;48.794;9.820;2023-07-28T17:47:43;95981.63;;;21.86;73.38
40596;BME280;26304;48.794;9.820;2023-07-28T17:53:25;95980.00;;;21.95;72.84
40596;BME280;26304;48.794;9.820;2023-07-28T17:59:08;95976.13;;;22.00;72.79
40596;BME280;26304;48.794;9.820;2023-07-28T18:04:51;95976.03;;;22.07;72.68
40596;BME280;26304;48.794;9.820;2023-07-28T18:10:34;95976.66;;;22.15;72.42
40596;BME280;26304;48.794;9.820;2023-07-28T18:16:19;95985.91;;;22.27;72.70
40596;BME280;26304;48.794;9.820;2023-07-28T18:22:06;95979.16;;;22.26;72.83
40596;BME280;26304;48.794;9.820;2023-07-28T18:27:49;95974.88;;;22.32;72.99
40596;BME280;26304;48.794;9.820;2023-07-28T18:33:31;95988.00;;;22.16;73.72
40596;BME280;26304;48.794;9.820;2023-07-28T18:39:15;95992.84;;;21.97;75.20
40596;BME280;26304;48.794;9.820;2023-07-28T18:44:57;95992.38;;;22.02;74.43
40596;BME280;26304;48.794;9.820;2023-07-28T18:50:40;95996.88;;;22.05;74.34
40596;BME280;26304;48.794;9.820;2023-07-28T18:56:24;96007.78;;;22.07;74.17
40596;BME280;26304;48.794;9.820;2023-07-28T19:02:06;96007.00;;;22.10;73.15
40596;BME280;26304;48.794;9.820;2023-07-28T19:07:48;96010.91;;;22.02;74.34
40596;BME280;26304;48.794;9.820;2023-07-28T19:13:32;96029.19;;;21.66;76.96
40596;BME280;26304;48.794;9.820;2023-07-28T19:19:15;96042.06;;;21.29;80.40
40596;BME280;26304;48.794;9.820;2023-07-28T19:24:58;96037.72;;;21.12;81.35
40596;BME280;26304;48.794;9.820;2023-07-28T19:30:42;96046.47;;;21.39;78.08
40596;BME280;26304;48.794;9.820;2023-07-28T19:36:25;96053.94;;;21.14;79.09
40596;BME280;26304;48.794;9.820;2023-07-28T19:42:07;96063.56;;;20.97;80.09
40596;BME280;26304;48.794;9.820;2023-07-28T19:47:51;96068.81;;;21.00;80.47
40596;BME280;26304;48.794;9.820;2023-07-28T19:53:34;96062.88;;;20.89;81.59
40596;BME280;26304;48.794;9.820;2023-07-28T19:59:16;96065.97;;;20.84;82.73
40596;BME280;26304;48.794;9.820;2023-07-28T20:05:00;96066.75;;;20.81;83.35
40596;BME280;26304;48.794;9.820;2023-07-28T20:10:42;96079.69;;;20.68;84.71
40596;BME280;26304;48.794;9.820;2023-07-28T20:16:24;96084.19;;;20.71;85.13
40596;BME280;26304;48.794;9.820;2023-07-28T20:22:08;96079.66;;;20.72;85.54
40596;BME280;26304;48.794;9.820;2023-07-28T20:27:51;96080.94;;;20.49;87.61
40596;BME280;26304;48.794;9.820;2023-07-28T20:33:34;96075.47;;;20.74;85.64
40596;BME280;26304;48.794;9.820;2023-07-28T20:39:18;96087.19;;;20.73;85.88
40596;BME280;26304;48.794;9.820;2023-07-28T20:45:02;96075.09;;;20.72;86.59
40596;BME280;26304;48.794;9.820;2023-07-28T20:50:45;96070.63;;;20.65;86.85
40596;BME280;26304;48.794;9.820;2023-07-28T20:56:29;96066.94;;;20.56;87.46
40596;BME280;26304;48.794;9.820;2023-07-28T21:02:11;96069.91;;;20.58;88.29
40596;BME280;26304;48.794;9.820;2023-07-28T21:07:55;96081.28;;;20.51;87.55
40596;BME280;26304;48.794;9.820;2023-07-28T21:13:38;96085.13;;;20.43;88.92
40596;BME280;26304;48.794;9.820;2023-07-28T21:19:21;96087.31;;;20.55;86.54
40596;BME280;26304;48.794;9.820;2023-07-28T21:25:04;96079.06;;;20.46;87.17
40596;BME280;26304;48.794;9.820;2023-07-28T21:30:48;96071.47;;;20.55;85.90
40596;BME280;26304;48.794;9.820;2023-07-28T21:36:30;96077.72;;;20.27;87.48
40596;BME280;26304;48.794;9.820;2023-07-28T21:42:13;96073.78;;;20.46;85.95
40596;BME280;26304;48.794;9.820;2023-07-28T21:47:56;96064.31;;;20.48;85.53
40596;BME280;26304;48.794;9.820;2023-07-28T21:53:39;96071.69;;;20.26;86.52
40596;BME280;26304;48.794;9.820;2023-07-28T21:59:21;96078.03;;;20.32;86.06
40596;BME280;26304;48.794;9.820;2023-07-28T22:05:06;96061.03;;;20.41;84.68
40596;BME280;26304;48.794;9.820;2023-07-28T22:10:49;96067.16;;;20.27;85.17
40596;BME280;26304;48.794;9.820;2023-07-28T22:16:31;96068.38;;;20.11;85.63
40596;BME280;26304;48.794;9.820;2023-07-28T22:22:15;96075.50;;;20.18;84.97
40596;BME280;26304;48.794;9.820;2023-07-28T22:27:58;96081.19;;;20.13;84.69
40596;BME280;26304;48.794;9.820;2023-07-28T22:33:40;96080.06;;;20.14;84.09
40596;BME280;26304;48.794;9.820;2023-07-28T22:39:24;96091.06;;;20.02;84.69
40596;BME280;26304;48.794;9.820;2023-07-28T22:45:07;96086.91;;;20.01;84.36
40596;BME280;26304;48.794;9.820;2023-07-28T22:50:49;96084.59;;;20.10;83.27
40596;BME280;26304;48.794;9.820;2023-07-28T22:56:33;96089.63;;;19.90;83.95
40596;BME280;26304;48.794;9.820;2023-07-28T23:02:15;96077.59;;;19.85;83.99
40596;BME280;26304;48.794;9.820;2023-07-28T23:07:58;96074.19;;;19.85;84.00
40596;BME280;26304;48.794;9.820;2023-07-28T23:13:41;96069.72;;;19.67;84.58
40596;BME280;26304;48.794;9.820;2023-07-28T23:19:24;96068.56;;;19.79;83.66
40596;BME280;26304;48.794;9.820;2023-07-28T23:25:07;96068.94;;;19.74;83.45
40596;BME280;26304;48.794;9.820;2023-07-28T23:30:51;96066.31;;;19.77;83.03
40596;BME280;26304;48.794;9.820;2023-07-28T23:36:34;96059.19;;;19.64;83.88
40596;BME280;26304;48.794;9.820;2023-07-28T23:42:16;96061.50;;;19.58;84.79
40596;BME280;26304;48.794;9.820;2023-07-28T23:48:00;96048.69;;;19.56;85.14
40596;BME280;26304;48.794;9.820;2023-07-28T23:53:42;96042.66;;;19.59;84.78
40596;BME280;26304;48.794;9.820;2023-07-28T23:59:25;96035.88;;;19.58;84.73
